^^
Grace C. Lehan Memorial Weather Station Historical Data
Daily Summary for August 1, 2021 Units:  Both    English   Metric
Daily Weekly Monthly Yearly
  High: Low: Average:
Temperature: 79.3 °F /  26.3 °C 49.8 °F /  9.9 °C 65.2 °F /  18.4 °C
Dew Point: 58.3 °F /  14.6 °C 47.8 °F /  8.8 °C 53.3 °F /  11.8 °C
Humidity: 94% 39.7% 69%
Wind Speed: 3mph /  4.8km/h - 0.3mph /  0.5km/h
Wind Gust: 7mph /  11.3km/h - -
Wind- - WSW
Pressure: 30.25 in /  1024.3 hPa 30.14 in /  1020.5 hPa -
Precipitation: 0.02 in /  0.51 mm    
 
 
Tabular Data for August 1, 2021
Time Temperature Dew Point Pressure Wind Wind Speed Wind Gust Humidity Rainfall Rate (Hourly) solar
00:04 53.3 °F /  11.8 °C 50.7 °F /  10.4 °C 30.19in /  1022.2hPa West 0.6mph /  1km/h 4mph /  6.4km/h 90.9% 0.00in /  0mm 0 W/m2
00:09 53.3 °F /  11.8 °C 50.8 °F /  10.4 °C 30.18in /  1021.9hPa West 0.3mph /  0.5km/h 4mph /  6.4km/h 91.1% 0.00in /  0mm 0 W/m2
00:14 53.4 °F /  11.9 °C 51.1 °F /  10.6 °C 30.18in /  1021.9hPa West 0.5mph /  0.8km/h 5mph /  8km/h 92% 0.00in /  0mm 0 W/m2
00:19 53.5 °F /  11.9 °C 51.1 °F /  10.6 °C 30.18in /  1021.9hPa WSW 1.1mph /  1.8km/h 5mph /  8km/h 91.8% 0.00in /  0mm 0 W/m2
00:24 53.5 °F /  11.9 °C 50.9 °F /  10.5 °C 30.18in /  1021.9hPa WSW 0.7mph /  1.1km/h 7mph /  11.3km/h 91% 0.00in /  0mm 0 W/m2
00:29 53.6 °F /  12 °C 51 °F /  10.6 °C 30.18in /  1021.9hPa West 0.3mph /  0.5km/h 7mph /  11.3km/h 91% 0.00in /  0mm 0 W/m2
00:34 53.7 °F /  12.1 °C 51.1 °F /  10.6 °C 30.18in /  1021.9hPa West 0.3mph /  0.5km/h 7mph /  11.3km/h 91% 0.00in /  0mm 0 W/m2
00:39 53.7 °F /  12.1 °C 51.2 °F /  10.7 °C 30.18in /  1021.9hPa Calm   3mph /  4.8km/h 91% 0.00in /  0mm 0 W/m2
00:44 53.8 °F /  12.1 °C 51.3 °F /  10.7 °C 30.19in /  1022.2hPa Calm   3mph /  4.8km/h 91% 0.00in /  0mm 0 W/m2
00:49 53.8 °F /  12.1 °C 51.1 °F /  10.6 °C 30.18in /  1021.9hPa Calm   3mph /  4.8km/h 90.5% 0.00in /  0mm 0 W/m2
00:54 53.7 °F /  12.1 °C 50.9 °F /  10.5 °C 30.18in /  1021.9hPa West 0.3mph /  0.5km/h 5mph /  8km/h 90% 0.00in /  0mm 0 W/m2
00:59 53.7 °F /  12.1 °C 50.8 °F /  10.4 °C 30.18in /  1021.9hPa Calm   5mph /  8km/h 90% 0.00in /  0mm 0 W/m2
01:04 53.6 °F /  12 °C 50.7 °F /  10.4 °C 30.18in /  1021.9hPa West 0.6mph /  1km/h 5mph /  8km/h 90% 0.00in /  0mm 0 W/m2
01:09 53.6 °F /  12 °C 50.8 °F /  10.4 °C 30.18in /  1021.9hPa SW 0.6mph /  1km/h 5mph /  8km/h 90% 0.00in /  0mm 0 W/m2
01:14 53.7 °F /  12.1 °C 50.8 °F /  10.4 °C 30.18in /  1021.9hPa SW 0.3mph /  0.5km/h 5mph /  8km/h 90% 0.00in /  0mm 0 W/m2
01:19 53.7 °F /  12.1 °C 50.9 °F /  10.5 °C 30.18in /  1021.9hPa WSW 0.8mph /  1.3km/h 6mph /  9.7km/h 90% 0.00in /  0mm 0 W/m2
01:24 53.8 °F /  12.1 °C 50.9 °F /  10.5 °C 30.18in /  1021.9hPa West 0.6mph /  1km/h 6mph /  9.7km/h 90% 0.00in /  0mm 0 W/m2
01:29 53.8 °F /  12.1 °C 51 °F /  10.6 °C 30.18in /  1021.9hPa WSW 0.5mph /  0.8km/h 6mph /  9.7km/h 90% 0.00in /  0mm 0 W/m2
01:34 53.9 °F /  12.2 °C 51 °F /  10.6 °C 30.18in /  1021.9hPa WSW 0.2mph /  0.3km/h 6mph /  9.7km/h 90% 0.00in /  0mm 0 W/m2
01:39 54 °F /  12.2 °C 51.1 °F /  10.6 °C 30.18in /  1021.9hPa WSW 0.2mph /  0.3km/h 3mph /  4.8km/h 89.8% 0.00in /  0mm 0 W/m2
01:44 54 °F /  12.2 °C 50.8 °F /  10.4 °C 30.18in /  1021.9hPa WSW 0.4mph /  0.6km/h 4mph /  6.4km/h 89% 0.00in /  0mm 0 W/m2
01:49 54 °F /  12.2 °C 50.8 °F /  10.4 °C 30.18in /  1021.9hPa SW 0.3mph /  0.5km/h 4mph /  6.4km/h 89% 0.00in /  0mm 0 W/m2
01:54 54 °F /  12.2 °C 51.1 °F /  10.6 °C 30.18in /  1021.9hPa WSW 0.6mph /  1km/h 4mph /  6.4km/h 89.8% 0.00in /  0mm 0 W/m2
01:59 53.9 °F /  12.2 °C 50.9 °F /  10.5 °C 30.18in /  1021.9hPa WSW 1.4mph /  2.3km/h 5mph /  8km/h 89.5% 0.00in /  0mm 0 W/m2
02:04 53.9 °F /  12.2 °C 50.7 °F /  10.4 °C 30.18in /  1021.9hPa WSW 1.3mph /  2.1km/h 6mph /  9.7km/h 89% 0.00in /  0mm 0 W/m2
02:09 53.9 °F /  12.2 °C 50.7 °F /  10.4 °C 30.18in /  1021.9hPa WSW 0.3mph /  0.5km/h 6mph /  9.7km/h 89% 0.00in /  0mm 0 W/m2
02:14 53.8 °F /  12.1 °C 50.6 °F /  10.3 °C 30.18in /  1021.9hPa Calm   6mph /  9.7km/h 89% 0.00in /  0mm 0 W/m2
02:19 53.8 °F /  12.1 °C 50.6 °F /  10.3 °C 30.18in /  1021.9hPa SW 0.4mph /  0.6km/h 6mph /  9.7km/h 89% 0.00in /  0mm 0 W/m2
02:24 53.7 °F /  12.1 °C 50.6 °F /  10.3 °C 30.18in /  1021.9hPa SW 0.5mph /  0.8km/h 6mph /  9.7km/h 89% 0.00in /  0mm 0 W/m2
02:29 53.7 °F /  12.1 °C 50.6 °F /  10.3 °C 30.18in /  1021.9hPa SW 0.1mph /  0.2km/h 6mph /  9.7km/h 89% 0.00in /  0mm 0 W/m2
02:30 53.7 °F /  12.1 °C 50.5 °F /  10.3 °C 30.18in /  1021.9hPa Calm   6mph /  9.7km/h 89% 0.00in /  0mm 0 W/m2
03:00 53.5 °F /  11.9 °C 50.3 °F /  10.2 °C 30.18in /  1021.9hPa Calm   4mph /  6.4km/h 89% 0.00in /  0mm 0 W/m2
03:30 52.6 °F /  11.4 °C 49.5 °F /  9.7 °C 30.19in /  1022.2hPa Calm   4mph /  6.4km/h 89% 0.00in /  0mm 0 W/m2
04:04 51.3 °F /  10.7 °C 48.8 °F /  9.3 °C 30.19in /  1022.2hPa Calm     91% 0.00in /  0mm 0 W/m2
04:09 51.1 °F /  10.6 °C 48.6 °F /  9.2 °C 30.19in /  1022.2hPa Calm     91% 0.00in /  0mm 0 W/m2
04:14 50.8 °F /  10.4 °C 48.2 °F /  9 °C 30.19in /  1022.2hPa Calm     90.9% 0.00in /  0mm 0 W/m2
04:19 50.5 °F /  10.3 °C 48 °F /  8.9 °C 30.19in /  1022.2hPa Calm     91% 0.00in /  0mm 0 W/m2
04:24 50.4 °F /  10.2 °C 47.9 °F /  8.8 °C 30.20in /  1022.6hPa Calm     91% 0.00in /  0mm 0 W/m2
04:29 50.3 °F /  10.2 °C 48.1 °F /  8.9 °C 30.20in /  1022.6hPa Calm     92% 0.00in /  0mm 0 W/m2
04:34 50.2 °F /  10.1 °C 48 °F /  8.9 °C 30.20in /  1022.6hPa Calm     92% 0.00in /  0mm 0 W/m2
04:39 50.1 °F /  10.1 °C 47.9 °F /  8.8 °C 30.20in /  1022.6hPa Calm     92% 0.00in /  0mm 0 W/m2
04:44 50 °F /  10 °C 47.8 °F /  8.8 °C 30.20in /  1022.6hPa Calm     92% 0.00in /  0mm 0 W/m2
04:49 50 °F /  10 °C 47.8 °F /  8.8 °C 30.20in /  1022.6hPa Calm     92% 0.00in /  0mm 0 W/m2
04:54 49.9 °F /  9.9 °C 48 °F /  8.9 °C 30.20in /  1022.6hPa Calm     93% 0.00in /  0mm 0 W/m2
04:59 49.9 °F /  9.9 °C 48 °F /  8.9 °C 30.20in /  1022.6hPa Calm     93% 0.00in /  0mm 0 W/m2
05:04 49.9 °F /  9.9 °C 47.9 °F /  8.8 °C 30.20in /  1022.6hPa Calm     93% 0.00in /  0mm 0 W/m2
05:09 49.8 °F /  9.9 °C 47.9 °F /  8.8 °C 30.20in /  1022.6hPa Calm     93% 0.00in /  0mm 0 W/m2
05:14 49.8 °F /  9.9 °C 47.9 °F /  8.8 °C 30.21in /  1022.9hPa Calm     93% 0.00in /  0mm 0 W/m2
05:19 49.8 °F /  9.9 °C 47.8 °F /  8.8 °C 30.21in /  1022.9hPa Calm     93% 0.00in /  0mm 0 W/m2
05:24 49.8 °F /  9.9 °C 47.9 °F /  8.8 °C 30.21in /  1022.9hPa Calm     93% 0.00in /  0mm 0 W/m2
05:29 49.9 °F /  9.9 °C 47.9 °F /  8.8 °C 30.21in /  1022.9hPa Calm     93% 0.00in /  0mm 5 W/m2
05:34 49.9 °F /  9.9 °C 48.1 °F /  8.9 °C 30.21in /  1022.9hPa Calm     93.4% 0.00in /  0mm 7 W/m2
05:39 50 °F /  10 °C 48.4 °F /  9.1 °C 30.21in /  1022.9hPa Calm     94% 0.00in /  0mm 11 W/m2
05:44 50.1 °F /  10.1 °C 48.5 °F /  9.2 °C 30.21in /  1022.9hPa Calm     94% 0.00in /  0mm 11 W/m2
05:49 50.3 °F /  10.2 °C 48.7 °F /  9.3 °C 30.22in /  1023.2hPa Calm     94% 0.00in /  0mm 14 W/m2
05:54 50.4 °F /  10.2 °C 48.7 °F /  9.3 °C 30.22in /  1023.2hPa Calm     94% 0.00in /  0mm 18 W/m2
05:59 50.5 °F /  10.3 °C 48.8 °F /  9.3 °C 30.22in /  1023.2hPa Calm     94% 0.00in /  0mm 21 W/m2
06:04 50.6 °F /  10.3 °C 48.9 °F /  9.4 °C 30.22in /  1023.2hPa Calm     94% 0.00in /  0mm 25 W/m2
06:09 50.7 °F /  10.4 °C 49.1 °F /  9.5 °C 30.22in /  1023.2hPa Calm     94% 0.00in /  0mm 30 W/m2
06:14 50.8 °F /  10.4 °C 49.2 °F /  9.6 °C 30.22in /  1023.2hPa Calm     94% 0.00in /  0mm 39 W/m2
06:19 51 °F /  10.6 °C 49.3 °F /  9.6 °C 30.22in /  1023.2hPa Calm     94% 0.00in /  0mm 46 W/m2
06:24 51.1 °F /  10.6 °C 49.4 °F /  9.7 °C 30.22in /  1023.2hPa Calm     94% 0.00in /  0mm 54 W/m2
06:29 51.2 °F /  10.7 °C 49.6 °F /  9.8 °C 30.22in /  1023.2hPa Calm     94% 0.00in /  0mm 56 W/m2
06:34 51.3 °F /  10.7 °C 49.7 °F /  9.8 °C 30.22in /  1023.2hPa Calm     94% 0.00in /  0mm 60 W/m2
06:39 51.5 °F /  10.8 °C 49.8 °F /  9.9 °C 30.22in /  1023.2hPa Calm     94% 0.00in /  0mm 67 W/m2
06:44 51.7 °F /  10.9 °C 50 °F /  10 °C 30.22in /  1023.2hPa Calm     94% 0.00in /  0mm 70 W/m2
06:49 52 °F /  11.1 °C 50.3 °F /  10.2 °C 30.22in /  1023.2hPa Calm     94% 0.00in /  0mm 77 W/m2
06:54 52.2 °F /  11.2 °C 50.5 °F /  10.3 °C 30.22in /  1023.2hPa Calm     94% 0.00in /  0mm 83 W/m2
06:59 52.4 °F /  11.3 °C 50.7 °F /  10.4 °C 30.22in /  1023.2hPa Calm     94% 0.00in /  0mm 93 W/m2
07:04 52.7 °F /  11.5 °C 51 °F /  10.6 °C 30.22in /  1023.2hPa Calm     94% 0.00in /  0mm 120 W/m2
07:09 53.1 °F /  11.7 °C 51.4 °F /  10.8 °C 30.21in /  1022.9hPa Calm     94% 0.00in /  0mm 123 W/m2
07:14 53.7 °F /  12.1 °C 52 °F /  11.1 °C 30.22in /  1023.2hPa Calm     94% 0.00in /  0mm 123 W/m2
07:19 54.2 °F /  12.3 °C 52.3 °F /  11.3 °C 30.22in /  1023.2hPa Calm     93.2% 0.00in /  0mm 204 W/m2
07:24 54.9 °F /  12.7 °C 52.9 °F /  11.6 °C 30.22in /  1023.2hPa Calm     93% 0.00in /  0mm 214 W/m2
07:29 55.5 °F /  13.1 °C 53.3 °F /  11.8 °C 30.23in /  1023.6hPa Calm     92.3% 0.00in /  0mm 237 W/m2
07:34 56 °F /  13.3 °C 53.4 °F /  11.9 °C 30.23in /  1023.6hPa Calm     90.7% 0.00in /  0mm 237 W/m2
07:39 56.5 °F /  13.6 °C 53.4 °F /  11.9 °C 30.24in /  1023.9hPa Calm     89.1% 0.00in /  0mm 206 W/m2
07:44 56.9 °F /  13.8 °C 53 °F /  11.7 °C 30.24in /  1023.9hPa Calm     86.8% 0.00in /  0mm 241 W/m2
07:49 57.2 °F /  14 °C 52.9 °F /  11.6 °C 30.24in /  1023.9hPa Calm     85.3% 0.00in /  0mm 241 W/m2
07:54 57.6 °F /  14.2 °C 53.1 °F /  11.7 °C 30.24in /  1023.9hPa Calm     84.9% 0.00in /  0mm 190 W/m2
07:59 57.9 °F /  14.4 °C 53.1 °F /  11.7 °C 30.24in /  1023.9hPa Calm     83.8% 0.00in /  0mm 181 W/m2
08:04 58.3 °F /  14.6 °C 53.2 °F /  11.8 °C 30.24in /  1023.9hPa Calm     83% 0.00in /  0mm 178 W/m2
08:09 58.4 °F /  14.7 °C 53 °F /  11.7 °C 30.24in /  1023.9hPa Calm     82.1% 0.00in /  0mm 213 W/m2
08:14 58.7 °F /  14.8 °C 53.5 °F /  11.9 °C 30.24in /  1023.9hPa Calm     82.8% 0.00in /  0mm 232 W/m2
08:19 59 °F /  15 °C 53.5 °F /  11.9 °C 30.24in /  1023.9hPa Calm     81.9% 0.00in /  0mm 237 W/m2
08:24 59.2 °F /  15.1 °C 53 °F /  11.7 °C 30.24in /  1023.9hPa Calm     79.8% 0.00in /  0mm 253 W/m2
08:29 59.4 °F /  15.2 °C 53.2 °F /  11.8 °C 30.24in /  1023.9hPa Calm     79.7% 0.00in /  0mm 213 W/m2
08:34 59.7 °F /  15.4 °C 53.1 °F /  11.7 °C 30.24in /  1023.9hPa Calm     78.9% 0.00in /  0mm 204 W/m2
08:39 59.8 °F /  15.4 °C 52.9 °F /  11.6 °C 30.24in /  1023.9hPa Calm     77.8% 0.00in /  0mm 178 W/m2
08:44 60 °F /  15.6 °C 53.2 °F /  11.8 °C 30.24in /  1023.9hPa Calm     78.2% 0.00in /  0mm 207 W/m2
08:49 60.1 °F /  15.6 °C 53.6 °F /  12 °C 30.24in /  1023.9hPa Calm     79% 0.00in /  0mm 216 W/m2
08:54 60.2 °F /  15.7 °C 53.5 °F /  11.9 °C 30.24in /  1023.9hPa Calm     78.3% 0.00in /  0mm 220 W/m2
08:59 60.4 °F /  15.8 °C 53.7 °F /  12.1 °C 30.24in /  1023.9hPa Calm     78.5% 0.00in /  0mm 229 W/m2
09:04 60.5 °F /  15.8 °C 53.5 °F /  11.9 °C 30.25in /  1024.3hPa Calm     77.5% 0.00in /  0mm 244 W/m2
09:09 60.7 °F /  15.9 °C 53.6 °F /  12 °C 30.24in /  1023.9hPa Calm     77.4% 0.00in /  0mm 239 W/m2
09:14 60.7 °F /  15.9 °C 53 °F /  11.7 °C 30.24in /  1023.9hPa Calm     75.6% 0.00in /  0mm 220 W/m2
09:19 60.8 °F /  16 °C 53 °F /  11.7 °C 30.24in /  1023.9hPa Calm     75.5% 0.00in /  0mm 244 W/m2
09:24 61 °F /  16.1 °C 53.7 °F /  12.1 °C 30.24in /  1023.9hPa Calm     76.8% 0.00in /  0mm 265 W/m2
09:29 61.3 °F /  16.3 °C 54 °F /  12.2 °C 30.24in /  1023.9hPa Calm     77% 0.00in /  0mm 264 W/m2
09:34 61.5 °F /  16.4 °C 54.5 °F /  12.5 °C 30.24in /  1023.9hPa Calm     77.8% 0.00in /  0mm 211 W/m2
09:39 61.7 °F /  16.5 °C 54.7 °F /  12.6 °C 30.24in /  1023.9hPa Calm     78% 0.00in /  0mm 211 W/m2
09:44 61.8 °F /  16.6 °C 55.1 °F /  12.8 °C 30.24in /  1023.9hPa Calm     78.8% 0.00in /  0mm 248 W/m2
09:49 61.8 °F /  16.6 °C 55.3 °F /  12.9 °C 30.24in /  1023.9hPa Calm     79% 0.00in /  0mm 308 W/m2
09:54 62 °F /  16.7 °C 55.4 °F /  13 °C 30.24in /  1023.9hPa Calm     79% 0.00in /  0mm 299 W/m2
09:59 62.1 °F /  16.7 °C 55.2 °F /  12.9 °C 30.24in /  1023.9hPa Calm     78.1% 0.00in /  0mm 274 W/m2
10:04 62.2 °F /  16.8 °C 55.3 °F /  12.9 °C 30.24in /  1023.9hPa Calm     78% 0.00in /  0mm 239 W/m2
10:09 62.4 °F /  16.9 °C 55.7 °F /  13.2 °C 30.24in /  1023.9hPa Calm     78.7% 0.00in /  0mm 236 W/m2
10:14 62.6 °F /  17 °C 56.2 °F /  13.4 °C 30.24in /  1023.9hPa Calm     79.4% 0.00in /  0mm 236 W/m2
10:19 62.8 °F /  17.1 °C 56.2 °F /  13.4 °C 30.24in /  1023.9hPa Calm     79% 0.00in /  0mm 241 W/m2
10:24 63.1 °F /  17.3 °C 56.3 °F /  13.5 °C 30.24in /  1023.9hPa Calm     78.6% 0.00in /  0mm 243 W/m2
10:29 63.3 °F /  17.4 °C 56.1 °F /  13.4 °C 30.24in /  1023.9hPa Calm     77.3% 0.00in /  0mm 251 W/m2
10:34 63.5 °F /  17.5 °C 56.5 °F /  13.6 °C 30.24in /  1023.9hPa Calm     78% 0.00in /  0mm 353 W/m2
10:39 63.6 °F /  17.6 °C 56.2 °F /  13.4 °C 30.24in /  1023.9hPa Calm     77% 0.00in /  0mm 434 W/m2
10:44 63.7 °F /  17.6 °C 56.3 °F /  13.5 °C 30.24in /  1023.9hPa Calm     76.7% 0.00in /  0mm 434 W/m2
10:49 64 °F /  17.8 °C 56.6 °F /  13.7 °C 30.23in /  1023.6hPa Calm     76.9% 0.00in /  0mm 526 W/m2
10:54 64.5 °F /  18.1 °C 56.9 °F /  13.8 °C 30.23in /  1023.6hPa Calm     76.6% 0.00in /  0mm 554 W/m2
10:59 65.1 °F /  18.4 °C 57.6 °F /  14.2 °C 30.23in /  1023.6hPa Calm     76.8% 0.00in /  0mm 722 W/m2
11:04 65.8 °F /  18.8 °C 57.9 °F /  14.4 °C 30.23in /  1023.6hPa Calm     75.6% 0.00in /  0mm 838 W/m2
11:09 66.7 °F /  19.3 °C 58.2 °F /  14.6 °C 30.23in /  1023.6hPa Calm     74.2% 0.00in /  0mm 838 W/m2
11:14 67.4 °F /  19.7 °C 57.8 °F /  14.3 °C 30.23in /  1023.6hPa Calm     71.4% 0.00in /  0mm 601 W/m2
11:19 68 °F /  20 °C 58.3 °F /  14.6 °C 30.23in /  1023.6hPa Calm     71.2% 0.00in /  0mm 918 W/m2
11:24 68.5 °F /  20.3 °C 57.5 °F /  14.2 °C 30.23in /  1023.6hPa Calm     67.8% 0.00in /  0mm 717 W/m2
11:29 69.1 °F /  20.6 °C 57.4 °F /  14.1 °C 30.23in /  1023.6hPa Calm     66.2% 0.00in /  0mm 944 W/m2
11:34 69.6 °F /  20.9 °C 56.9 °F /  13.8 °C 30.23in /  1023.6hPa Calm     63.9% 0.00in /  0mm 944 W/m2
11:39 70.3 °F /  21.3 °C 56 °F /  13.3 °C 30.22in /  1023.2hPa Calm     60.4% 0.00in /  0mm 838 W/m2
11:44 71 °F /  21.7 °C 54.4 °F /  12.4 °C 30.22in /  1023.2hPa Calm     55.7% 0.02in /  0.51mm 954 W/m2
11:49 71.7 °F /  22.1 °C 54.1 °F /  12.3 °C 30.22in /  1023.2hPa Calm     53.8% 0.02in /  0.51mm 1014 W/m2
11:54 72.3 °F /  22.4 °C 54.7 °F /  12.6 °C 30.22in /  1023.2hPa WSW 0.5mph /  0.8km/h 5mph /  8km/h 53.8% 0.02in /  0.51mm 1014 W/m2
11:59 73.2 °F /  22.9 °C 54.1 °F /  12.3 °C 30.22in /  1023.2hPa WSW 0.2mph /  0.3km/h 5mph /  8km/h 51.1% 0.02in /  0.51mm 828 W/m2
12:00 73.5 °F /  23.1 °C 53.2 °F /  11.8 °C 30.21in /  1022.9hPa WSW 3mph /  4.8km/h 5mph /  8km/h 49% 0.02in /  0.51mm 793 W/m2
12:09 74.3 °F /  23.5 °C 53.4 °F /  11.9 °C 30.21in /  1022.9hPa WSW 0.4mph /  0.6km/h 5mph /  8km/h 48% 0.02in /  0.51mm 622 W/m2
12:14 74.8 °F /  23.8 °C 52.7 °F /  11.5 °C 30.21in /  1022.9hPa Calm   5mph /  8km/h 46.2% 0.02in /  0.51mm 485 W/m2
12:19 74.9 °F /  23.8 °C 52.4 °F /  11.3 °C 30.21in /  1022.9hPa West 0.5mph /  0.8km/h 5mph /  8km/h 45.4% 0.02in /  0.51mm 482 W/m2
12:24 74.9 °F /  23.8 °C 52.5 °F /  11.4 °C 30.21in /  1022.9hPa West 0.2mph /  0.3km/h 5mph /  8km/h 45.6% 0.02in /  0.51mm 454 W/m2
12:29 74.8 °F /  23.8 °C 53.5 °F /  11.9 °C 30.21in /  1022.9hPa West 0.1mph /  0.2km/h 5mph /  8km/h 47.3% 0.02in /  0.51mm 541 W/m2
12:34 74.8 °F /  23.8 °C 53.4 °F /  11.9 °C 30.21in /  1022.9hPa West 0.8mph /  1.3km/h 5mph /  8km/h 47.2% 0.02in /  0.51mm 738 W/m2
12:39 74.9 °F /  23.8 °C 53.1 °F /  11.7 °C 30.21in /  1022.9hPa West 0.3mph /  0.5km/h 4mph /  6.4km/h 46.7% 0.02in /  0.51mm 802 W/m2
12:44 75.1 °F /  23.9 °C 54.2 °F /  12.3 °C 30.21in /  1022.9hPa West 0.3mph /  0.5km/h 4mph /  6.4km/h 48.1% 0.02in /  0.51mm 761 W/m2
12:49 75.4 °F /  24.1 °C 53.5 °F /  11.9 °C 30.21in /  1022.9hPa Calm   4mph /  6.4km/h 46.4% 0.02in /  0.51mm 786 W/m2
12:54 75.5 °F /  24.2 °C 52.6 °F /  11.4 °C 30.21in /  1022.9hPa West 0.1mph /  0.2km/h 4mph /  6.4km/h 44.8% 0.02in /  0.51mm 888 W/m2
12:59 75.5 °F /  24.2 °C 51.5 °F /  10.8 °C 30.20in /  1022.6hPa West 0.1mph /  0.2km/h 4mph /  6.4km/h 43% 0.02in /  0.51mm 888 W/m2
13:04 75.5 °F /  24.2 °C 53.3 °F /  11.8 °C 30.20in /  1022.6hPa West 0.2mph /  0.3km/h 4mph /  6.4km/h 46% 0.02in /  0.51mm 972 W/m2
13:09 75.8 °F /  24.3 °C 53.6 °F /  12 °C 30.20in /  1022.6hPa West 1.1mph /  1.8km/h 6mph /  9.7km/h 46.1% 0.00in /  0mm 1009 W/m2
13:14 76.2 °F /  24.6 °C 53.8 °F /  12.1 °C 30.20in /  1022.6hPa WSW 0.1mph /  0.2km/h 6mph /  9.7km/h 45.7% 0.00in /  0mm 912 W/m2
13:19 76.4 °F /  24.7 °C 53.4 °F /  11.9 °C 30.20in /  1022.6hPa WSW 1.7mph /  2.7km/h 7mph /  11.3km/h 44.8% 0.00in /  0mm 912 W/m2
13:24 76.5 °F /  24.7 °C 52.5 °F /  11.4 °C 30.20in /  1022.6hPa WSW 0.8mph /  1.3km/h 7mph /  11.3km/h 43.3% 0.00in /  0mm 851 W/m2
13:29 76.6 °F /  24.8 °C 55.1 °F /  12.8 °C 30.19in /  1022.2hPa WSW 0.8mph /  1.3km/h 7mph /  11.3km/h 47.4% 0.00in /  0mm 860 W/m2
13:34 76.7 °F /  24.8 °C 53.4 °F /  11.9 °C 30.19in /  1022.2hPa WSW 0.1mph /  0.2km/h 7mph /  11.3km/h 44.5% 0.00in /  0mm 729 W/m2
13:39 76.6 °F /  24.8 °C 54.4 °F /  12.4 °C 30.18in /  1021.9hPa WSW 1mph /  1.6km/h 3mph /  4.8km/h 46.1% 0.00in /  0mm 816 W/m2
13:44 76.7 °F /  24.8 °C 54.5 °F /  12.5 °C 30.18in /  1021.9hPa WSW 0.8mph /  1.3km/h 4mph /  6.4km/h 46.2% 0.00in /  0mm 796 W/m2
13:49 77 °F /  25 °C 54.5 °F /  12.5 °C 30.18in /  1021.9hPa WSW 1.9mph /  3.1km/h 4mph /  6.4km/h 45.8% 0.00in /  0mm 824 W/m2
13:54 77.1 °F /  25.1 °C 54 °F /  12.2 °C 30.18in /  1021.9hPa WSW 0.1mph /  0.2km/h 4mph /  6.4km/h 44.7% 0.00in /  0mm 891 W/m2
13:59 77.1 °F /  25.1 °C 54.3 °F /  12.4 °C 30.18in /  1021.9hPa WSW 1.1mph /  1.8km/h 6mph /  9.7km/h 45.2% 0.00in /  0mm 891 W/m2
14:04 77.3 °F /  25.2 °C 53.9 °F /  12.2 °C 30.17in /  1021.6hPa West 1.3mph /  2.1km/h 6mph /  9.7km/h 44.3% 0.00in /  0mm 763 W/m2
14:09 77.5 °F /  25.3 °C 53.8 °F /  12.1 °C 30.17in /  1021.6hPa West 0.9mph /  1.4km/h 4mph /  6.4km/h 43.8% 0.00in /  0mm 831 W/m2
14:14 77.7 °F /  25.4 °C 53.8 °F /  12.1 °C 30.17in /  1021.6hPa SW 2.3mph /  3.7km/h 7mph /  11.3km/h 43.5% 0.00in /  0mm 889 W/m2
14:19 77.8 °F /  25.4 °C 54.7 °F /  12.6 °C 30.17in /  1021.6hPa WSW 0.5mph /  0.8km/h 7mph /  11.3km/h 44.9% 0.00in /  0mm 939 W/m2
14:24 77.9 °F /  25.5 °C 55 °F /  12.8 °C 30.17in /  1021.6hPa WSW 2.1mph /  3.4km/h 7mph /  11.3km/h 45.2% 0.00in /  0mm 875 W/m2
14:29 78.1 °F /  25.6 °C 53.3 °F /  11.8 °C 30.17in /  1021.6hPa WSW 2.2mph /  3.5km/h 7mph /  11.3km/h 42.3% 0.00in /  0mm 928 W/m2
14:34 78.1 °F /  25.6 °C 53.4 °F /  11.9 °C 30.17in /  1021.6hPa West 1.2mph /  1.9km/h 7mph /  11.3km/h 42.3% 0.00in /  0mm 944 W/m2
14:39 78.1 °F /  25.6 °C 52.9 °F /  11.6 °C 30.17in /  1021.6hPa West 0.3mph /  0.5km/h 6mph /  9.7km/h 41.6% 0.00in /  0mm 930 W/m2
14:44 78.4 °F /  25.8 °C 54.8 °F /  12.7 °C 30.17in /  1021.6hPa West 1.5mph /  2.4km/h 6mph /  9.7km/h 44.1% 0.00in /  0mm 926 W/m2
14:49 78.8 °F /  26 °C 55.1 °F /  12.8 °C 30.17in /  1021.6hPa WSW 0.8mph /  1.3km/h 7mph /  11.3km/h 44% 0.00in /  0mm 923 W/m2
14:54 79.2 °F /  26.2 °C 52.5 °F /  11.4 °C 30.17in /  1021.6hPa WSW 1mph /  1.6km/h 7mph /  11.3km/h 39.7% 0.00in /  0mm 905 W/m2
14:59 79.3 °F /  26.3 °C 53.7 °F /  12.1 °C 30.16in /  1021.2hPa WSW 0.5mph /  0.8km/h 7mph /  11.3km/h 41.2% 0.00in /  0mm 826 W/m2
15:04 79 °F /  26.1 °C 53.9 °F /  12.2 °C 30.16in /  1021.2hPa SW 0.4mph /  0.6km/h 7mph /  11.3km/h 41.9% 0.00in /  0mm 902 W/m2
15:09 78.9 °F /  26.1 °C 53.4 °F /  11.9 °C 30.16in /  1021.2hPa SSW 1.7mph /  2.7km/h 5mph /  8km/h 41.3% 0.00in /  0mm 889 W/m2
15:14 78.9 °F /  26.1 °C 54.5 °F /  12.5 °C 30.16in /  1021.2hPa SW 1.8mph /  2.9km/h 5mph /  8km/h 42.8% 0.00in /  0mm 853 W/m2
15:19 78.9 °F /  26.1 °C 53.2 °F /  11.8 °C 30.16in /  1021.2hPa SW 1.4mph /  2.3km/h 6mph /  9.7km/h 41% 0.00in /  0mm 861 W/m2
15:24 78.8 °F /  26 °C 53.1 °F /  11.7 °C 30.16in /  1021.2hPa SW 1.8mph /  2.9km/h 6mph /  9.7km/h 40.9% 0.00in /  0mm 853 W/m2
15:29 78.9 °F /  26.1 °C 54.2 °F /  12.3 °C 30.16in /  1021.2hPa SW 0.5mph /  0.8km/h 6mph /  9.7km/h 42.6% 0.00in /  0mm 840 W/m2
15:34 78.9 °F /  26.1 °C 53.1 °F /  11.7 °C 30.15in /  1020.9hPa SSW 1.2mph /  1.9km/h 6mph /  9.7km/h 40.8% 0.00in /  0mm 835 W/m2
15:39 78.9 °F /  26.1 °C 54.2 °F /  12.3 °C 30.15in /  1020.9hPa SW 2.1mph /  3.4km/h 6mph /  9.7km/h 42.5% 0.00in /  0mm 835 W/m2
15:44 78.9 °F /  26.1 °C 54.3 °F /  12.4 °C 30.15in /  1020.9hPa SSW 1.8mph /  2.9km/h 6mph /  9.7km/h 42.7% 0.00in /  0mm 710 W/m2
15:49 78.9 °F /  26.1 °C 53.9 °F /  12.2 °C 30.15in /  1020.9hPa SSW 2mph /  3.2km/h 6mph /  9.7km/h 42% 0.00in /  0mm 722 W/m2
15:54 78.8 °F /  26 °C 53.7 °F /  12.1 °C 30.15in /  1020.9hPa SW 2.8mph /  4.5km/h 7mph /  11.3km/h 41.8% 0.00in /  0mm 705 W/m2
15:59 78.8 °F /  26 °C 54.4 °F /  12.4 °C 30.15in /  1020.9hPa SW 0.7mph /  1.1km/h 7mph /  11.3km/h 43% 0.00in /  0mm 773 W/m2
16:09 78.7 °F /  25.9 °C 54.1 °F /  12.3 °C 30.15in /  1020.9hPa SW 1.1mph /  1.8km/h 7mph /  11.3km/h 42.5% 0.00in /  0mm 659 W/m2
16:14 78.6 °F /  25.9 °C 53.9 °F /  12.2 °C 30.15in /  1020.9hPa SW 0.2mph /  0.3km/h 7mph /  11.3km/h 42.5% 0.00in /  0mm 167 W/m2
16:19 78.4 °F /  25.8 °C 53 °F /  11.7 °C 30.15in /  1020.9hPa SW 0.5mph /  0.8km/h 7mph /  11.3km/h 41.4% 0.00in /  0mm 174 W/m2
16:24 78.1 °F /  25.6 °C 52.8 °F /  11.6 °C 30.15in /  1020.9hPa SW 0.9mph /  1.4km/h 7mph /  11.3km/h 41.5% 0.00in /  0mm 185 W/m2
16:29 77.9 °F /  25.5 °C 52.6 °F /  11.4 °C 30.15in /  1020.9hPa SSW 0.9mph /  1.4km/h 7mph /  11.3km/h 41.4% 0.00in /  0mm 160 W/m2
16:34 77.9 °F /  25.5 °C 54.3 °F /  12.4 °C 30.15in /  1020.9hPa WSW 0.6mph /  1km/h 7mph /  11.3km/h 44% 0.00in /  0mm 111 W/m2
16:39 78 °F /  25.6 °C 53.5 °F /  11.9 °C 30.15in /  1020.9hPa West 1.6mph /  2.6km/h 7mph /  11.3km/h 42.7% 0.00in /  0mm 91 W/m2
16:44 78 °F /  25.6 °C 53.6 °F /  12 °C 30.15in /  1020.9hPa WNW 2mph /  3.2km/h 7mph /  11.3km/h 42.8% 0.00in /  0mm 88 W/m2
16:49 77.9 °F /  25.5 °C 52.8 °F /  11.6 °C 30.15in /  1020.9hPa West 0.7mph /  1.1km/h 7mph /  11.3km/h 41.6% 0.00in /  0mm 121 W/m2
16:54 77.6 °F /  25.3 °C 52.9 °F /  11.6 °C 30.15in /  1020.9hPa SW 1.3mph /  2.1km/h 7mph /  11.3km/h 42.3% 0.00in /  0mm 130 W/m2
16:59 77.2 °F /  25.1 °C 52.9 °F /  11.6 °C 30.15in /  1020.9hPa SW 0.5mph /  0.8km/h 7mph /  11.3km/h 42.9% 0.00in /  0mm 116 W/m2
17:04 76.9 °F /  24.9 °C 53.5 °F /  11.9 °C 30.15in /  1020.9hPa SW 0.4mph /  0.6km/h 7mph /  11.3km/h 44.2% 0.00in /  0mm 98 W/m2
17:09 76.7 °F /  24.8 °C 53.9 °F /  12.2 °C 30.15in /  1020.9hPa Calm   4mph /  6.4km/h 45.2% 0.00in /  0mm 77 W/m2
17:14 76.5 °F /  24.7 °C 53.9 °F /  12.2 °C 30.15in /  1020.9hPa WSW 0.2mph /  0.3km/h 7mph /  11.3km/h 45.5% 0.00in /  0mm 77 W/m2
17:19 76.4 °F /  24.7 °C 54.3 °F /  12.4 °C 30.15in /  1020.9hPa WSW 1mph /  1.6km/h 7mph /  11.3km/h 46.3% 0.00in /  0mm 69 W/m2
17:24 76.4 °F /  24.7 °C 53.2 °F /  11.8 °C 30.15in /  1020.9hPa WSW 0.5mph /  0.8km/h 7mph /  11.3km/h 44.5% 0.00in /  0mm 123 W/m2
17:29 76.3 °F /  24.6 °C 53.7 °F /  12.1 °C 30.15in /  1020.9hPa WSW 0.2mph /  0.3km/h 7mph /  11.3km/h 45.5% 0.00in /  0mm 158 W/m2
17:34 76.2 °F /  24.6 °C 54.2 °F /  12.3 °C 30.15in /  1020.9hPa SW 0.1mph /  0.2km/h 7mph /  11.3km/h 46.5% 0.00in /  0mm 151 W/m2
17:39 76.1 °F /  24.5 °C 53.8 °F /  12.1 °C 30.14in /  1020.5hPa SW 0.4mph /  0.6km/h 4mph /  6.4km/h 46% 0.00in /  0mm 95 W/m2
17:44 76.1 °F /  24.5 °C 54.2 °F /  12.3 °C 30.15in /  1020.9hPa SW 0.7mph /  1.1km/h 5mph /  8km/h 46.5% 0.00in /  0mm 95 W/m2
17:49 76.1 °F /  24.5 °C 54.2 °F /  12.3 °C 30.15in /  1020.9hPa SW 1mph /  1.6km/h 5mph /  8km/h 46.7% 0.00in /  0mm 100 W/m2
17:54 76.1 °F /  24.5 °C 54.5 °F /  12.5 °C 30.15in /  1020.9hPa SW 0.3mph /  0.5km/h 5mph /  8km/h 47.1% 0.00in /  0mm 111 W/m2
17:59 76.2 °F /  24.6 °C 54.5 °F /  12.5 °C 30.15in /  1020.9hPa SW 0.3mph /  0.5km/h 5mph /  8km/h 47% 0.00in /  0mm 121 W/m2
18:04 76.1 °F /  24.5 °C 54.8 °F /  12.7 °C 30.15in /  1020.9hPa SW 0.7mph /  1.1km/h 5mph /  8km/h 47.6% 0.00in /  0mm 113 W/m2
18:09 75.7 °F /  24.3 °C 54.8 °F /  12.7 °C 30.15in /  1020.9hPa SSW 0.2mph /  0.3km/h 4mph /  6.4km/h 48.3% 0.00in /  0mm 81 W/m2
18:14 75.3 °F /  24.1 °C 54.7 °F /  12.6 °C 30.15in /  1020.9hPa SSW 0.2mph /  0.3km/h 4mph /  6.4km/h 48.8% 0.00in /  0mm 76 W/m2
18:19 74.9 °F /  23.8 °C 55 °F /  12.8 °C 30.15in /  1020.9hPa Calm   4mph /  6.4km/h 49.9% 0.00in /  0mm 74 W/m2
18:24 74.5 °F /  23.6 °C 55 °F /  12.8 °C 30.15in /  1020.9hPa Calm   4mph /  6.4km/h 50.6% 0.00in /  0mm 83 W/m2
18:29 74.3 °F /  23.5 °C 54.7 °F /  12.6 °C 30.15in /  1020.9hPa SSW 0.5mph /  0.8km/h 4mph /  6.4km/h 50.5% 0.00in /  0mm 104 W/m2
18:34 74.1 °F /  23.4 °C 54.9 °F /  12.7 °C 30.15in /  1020.9hPa Calm   4mph /  6.4km/h 51.1% 0.00in /  0mm 104 W/m2
18:39 74.1 °F /  23.4 °C 55 °F /  12.8 °C 30.15in /  1020.9hPa SSW 0.1mph /  0.2km/h 3mph /  4.8km/h 51.3% 0.00in /  0mm 67 W/m2
18:44 74.1 °F /  23.4 °C 54.6 °F /  12.6 °C 30.15in /  1020.9hPa South 0.1mph /  0.2km/h 3mph /  4.8km/h 50.5% 0.00in /  0mm 49 W/m2
18:49 74 °F /  23.3 °C 55.3 °F /  12.9 °C 30.15in /  1020.9hPa South 0.3mph /  0.5km/h 3mph /  4.8km/h 52% 0.00in /  0mm 42 W/m2
18:54 73.9 °F /  23.3 °C 55.3 °F /  12.9 °C 30.15in /  1020.9hPa South 0.1mph /  0.2km/h 3mph /  4.8km/h 52.1% 0.00in /  0mm 44 W/m2
18:59 73.8 °F /  23.2 °C 55.6 °F /  13.1 °C 30.16in /  1021.2hPa South 0.5mph /  0.8km/h 3mph /  4.8km/h 52.8% 0.00in /  0mm 44 W/m2
19:04 73.7 °F /  23.2 °C 55.4 °F /  13 °C 30.16in /  1021.2hPa SSW 0.9mph /  1.4km/h 6mph /  9.7km/h 52.7% 0.00in /  0mm 44 W/m2
19:09 73.7 °F /  23.2 °C 55.8 °F /  13.2 °C 30.16in /  1021.2hPa SW 0.3mph /  0.5km/h 6mph /  9.7km/h 53.6% 0.00in /  0mm 40 W/m2
19:14 73.5 °F /  23.1 °C 55.9 °F /  13.3 °C 30.16in /  1021.2hPa SW 0.4mph /  0.6km/h 6mph /  9.7km/h 54% 0.00in /  0mm 35 W/m2
19:19 73.4 °F /  23 °C 56.3 °F /  13.5 °C 30.16in /  1021.2hPa SSW 0.2mph /  0.3km/h 6mph /  9.7km/h 55% 0.00in /  0mm 32 W/m2
19:24 73.2 °F /  22.9 °C 56.1 °F /  13.4 °C 30.16in /  1021.2hPa SSW 0.1mph /  0.2km/h 6mph /  9.7km/h 55% 0.00in /  0mm 28 W/m2
19:29 73 °F /  22.8 °C 56.3 °F /  13.5 °C 30.16in /  1021.2hPa Calm   6mph /  9.7km/h 55.7% 0.00in /  0mm 26 W/m2
19:34 72.8 °F /  22.7 °C 56.3 °F /  13.5 °C 30.16in /  1021.2hPa Calm   6mph /  9.7km/h 56.1% 0.00in /  0mm 26 W/m2
19:39 72.6 °F /  22.6 °C 56.3 °F /  13.5 °C 30.17in /  1021.6hPa SSW 0.1mph /  0.2km/h 2mph /  3.2km/h 56.5% 0.00in /  0mm 28 W/m2
19:44 72.4 °F /  22.4 °C 56.3 °F /  13.5 °C 30.17in /  1021.6hPa SSW 0.3mph /  0.5km/h 2mph /  3.2km/h 57% 0.00in /  0mm 25 W/m2
19:49 72.2 °F /  22.3 °C 56.1 °F /  13.4 °C 30.17in /  1021.6hPa SSW 0.2mph /  0.3km/h 2mph /  3.2km/h 57% 0.00in /  0mm 18 W/m2
19:54 72 °F /  22.2 °C 55.9 °F /  13.3 °C 30.17in /  1021.6hPa Calm   2mph /  3.2km/h 57% 0.00in /  0mm 14 W/m2
19:59 71.8 °F /  22.1 °C 56 °F /  13.3 °C 30.17in /  1021.6hPa Calm   2mph /  3.2km/h 57.5% 0.00in /  0mm 11 W/m2
20:00 71.6 °F /  22 °C 56.1 °F /  13.4 °C 30.17in /  1021.6hPa Calm   2mph /  3.2km/h 58% 0.00in /  0mm 9 W/m2
20:09 71.3 °F /  21.8 °C 56 °F /  13.3 °C 30.17in /  1021.6hPa Calm     58.6% 0.00in /  0mm 5 W/m2
20:14 71 °F /  21.7 °C 55.9 °F /  13.3 °C 30.17in /  1021.6hPa Calm     58.8% 0.00in /  0mm 5 W/m2
20:19 70.7 °F /  21.5 °C 55.5 °F /  13.1 °C 30.18in /  1021.9hPa Calm     58.5% 0.00in /  0mm 0 W/m2
20:24 70.4 °F /  21.3 °C 55 °F /  12.8 °C 30.18in /  1021.9hPa SSW 0.3mph /  0.5km/h 3mph /  4.8km/h 58% 0.00in /  0mm 0 W/m2
20:29 70.2 °F /  21.2 °C 54.9 °F /  12.7 °C 30.18in /  1021.9hPa Calm   3mph /  4.8km/h 58.3% 0.00in /  0mm 0 W/m2
20:34 69.9 °F /  21.1 °C 55 °F /  12.8 °C 30.18in /  1021.9hPa Calm   3mph /  4.8km/h 59% 0.00in /  0mm 0 W/m2
20:39 69.7 °F /  20.9 °C 54.7 °F /  12.6 °C 30.17in /  1021.6hPa Calm   1mph /  1.6km/h 59.1% 0.00in /  0mm 0 W/m2
20:44 69.4 °F /  20.8 °C 54.9 °F /  12.7 °C 30.17in /  1021.6hPa Calm   1mph /  1.6km/h 60% 0.00in /  0mm 0 W/m2
20:49 69.1 °F /  20.6 °C 55 °F /  12.8 °C 30.18in /  1021.9hPa Calm   1mph /  1.6km/h 60.9% 0.00in /  0mm 0 W/m2
20:54 68.8 °F /  20.4 °C 54.8 °F /  12.7 °C 30.18in /  1021.9hPa Calm   1mph /  1.6km/h 61% 0.00in /  0mm 0 W/m2
20:59 68.6 °F /  20.3 °C 55 °F /  12.8 °C 30.18in /  1021.9hPa Calm   1mph /  1.6km/h 61.9% 0.00in /  0mm 0 W/m2
21:04 68.4 °F /  20.2 °C 55.3 °F /  12.9 °C 30.18in /  1021.9hPa Calm   1mph /  1.6km/h 62.8% 0.00in /  0mm 0 W/m2
21:09 68.2 °F /  20.1 °C 55.2 °F /  12.9 °C 30.18in /  1021.9hPa Calm     63.1% 0.00in /  0mm 0 W/m2
21:14 68 °F /  20 °C 55.4 °F /  13 °C 30.18in /  1021.9hPa Calm     64% 0.00in /  0mm 0 W/m2
21:19 67.8 °F /  19.9 °C 55.4 °F /  13 °C 30.18in /  1021.9hPa Calm     64.7% 0.00in /  0mm 0 W/m2
21:24 67.5 °F /  19.7 °C 55.4 °F /  13 °C 30.18in /  1021.9hPa Calm     65% 0.00in /  0mm 0 W/m2
21:29 67.3 °F /  19.6 °C 55.6 °F /  13.1 °C 30.18in /  1021.9hPa Calm     66% 0.00in /  0mm 0 W/m2
21:34 67.1 °F /  19.5 °C 55.5 °F /  13.1 °C 30.18in /  1021.9hPa Calm     66.5% 0.00in /  0mm 0 W/m2
21:39 66.8 °F /  19.3 °C 55.5 °F /  13.1 °C 30.19in /  1022.2hPa Calm     67% 0.00in /  0mm 0 W/m2
21:44 66.6 °F /  19.2 °C 55.3 °F /  12.9 °C 30.19in /  1022.2hPa Calm     67.1% 0.00in /  0mm 0 W/m2
21:49 66.4 °F /  19.1 °C 55.5 °F /  13.1 °C 30.19in /  1022.2hPa Calm     68% 0.00in /  0mm 0 W/m2
21:54 66.2 °F /  19 °C 55.7 °F /  13.2 °C 30.19in /  1022.2hPa Calm     68.9% 0.00in /  0mm 0 W/m2
21:59 66.1 °F /  18.9 °C 55.6 °F /  13.1 °C 30.19in /  1022.2hPa Calm     69% 0.00in /  0mm 0 W/m2
22:04 65.9 °F /  18.8 °C 55.5 °F /  13.1 °C 30.19in /  1022.2hPa Calm     69.3% 0.00in /  0mm 0 W/m2
22:09 65.7 °F /  18.7 °C 55.6 °F /  13.1 °C 30.19in /  1022.2hPa Calm     70% 0.00in /  0mm 0 W/m2
22:14 65.5 °F /  18.6 °C 55.9 °F /  13.3 °C 30.19in /  1022.2hPa Calm     70.9% 0.00in /  0mm 0 W/m2
22:19 65.4 °F /  18.6 °C 55.7 °F /  13.2 °C 30.19in /  1022.2hPa Calm     71% 0.00in /  0mm 0 W/m2
22:24 65.2 °F /  18.4 °C 55.6 °F /  13.1 °C 30.19in /  1022.2hPa Calm     71% 0.00in /  0mm 0 W/m2
22:29 65 °F /  18.3 °C 55.6 °F /  13.1 °C 30.19in /  1022.2hPa Calm     71.6% 0.00in /  0mm 0 W/m2
22:34 64.9 °F /  18.3 °C 55.6 °F /  13.1 °C 30.19in /  1022.2hPa Calm     72% 0.00in /  0mm 0 W/m2
22:39 64.7 °F /  18.2 °C 55.5 °F /  13.1 °C 30.19in /  1022.2hPa Calm     72% 0.00in /  0mm 0 W/m2
22:44 64.5 °F /  18.1 °C 55.5 °F /  13.1 °C 30.19in /  1022.2hPa Calm     72.5% 0.00in /  0mm 0 W/m2
22:49 64.3 °F /  17.9 °C 55.5 °F /  13.1 °C 30.19in /  1022.2hPa Calm     73% 0.00in /  0mm 0 W/m2
22:54 64.1 °F /  17.8 °C 55.3 °F /  12.9 °C 30.19in /  1022.2hPa Calm     73% 0.00in /  0mm 0 W/m2
22:59 64 °F /  17.8 °C 55.2 °F /  12.9 °C 30.19in /  1022.2hPa Calm     73% 0.00in /  0mm 0 W/m2
23:04 63.9 °F /  17.7 °C 54.8 °F /  12.7 °C 30.19in /  1022.2hPa Calm     72.3% 0.00in /  0mm 0 W/m2
23:09 63.8 °F /  17.7 °C 54.9 °F /  12.7 °C 30.19in /  1022.2hPa Calm     72.9% 0.00in /  0mm 0 W/m2
23:14 63.7 °F /  17.6 °C 54.9 °F /  12.7 °C 30.19in /  1022.2hPa Calm     73% 0.00in /  0mm 0 W/m2
23:19 63.6 °F /  17.6 °C 54.8 °F /  12.7 °C 30.19in /  1022.2hPa Calm     73% 0.00in /  0mm 0 W/m2
23:24 63.4 °F /  17.4 °C 54.6 °F /  12.6 °C 30.19in /  1022.2hPa Calm     73% 0.00in /  0mm 0 W/m2
23:29 63.3 °F /  17.4 °C 54.5 °F /  12.5 °C 30.19in /  1022.2hPa Calm     73% 0.00in /  0mm 0 W/m2
23:34 63.1 °F /  17.3 °C 54.3 °F /  12.4 °C 30.19in /  1022.2hPa Calm     73% 0.00in /  0mm 0 W/m2
23:39 63 °F /  17.2 °C 54.3 °F /  12.4 °C 30.19in /  1022.2hPa Calm     73.3% 0.00in /  0mm 0 W/m2
23:44 62.8 °F /  17.1 °C 54.3 °F /  12.4 °C 30.19in /  1022.2hPa Calm     73.9% 0.00in /  0mm 0 W/m2
23:49 62.6 °F /  17 °C 54.2 °F /  12.3 °C 30.19in /  1022.2hPa Calm     74% 0.00in /  0mm 0 W/m2
23:54 62.4 °F /  16.9 °C 54 °F /  12.2 °C 30.19in /  1022.2hPa Calm     74% 0.00in /  0mm 0 W/m2
23:59 62.2 °F /  16.8 °C 53.9 °F /  12.2 °C 30.19in /  1022.2hPa Calm     74% 0.00in /  0mm 0 W/m2
Hartford County Weather
Compliments of Weather Underground - 2 mb